Time;durP1;ratioP1;P1;durP2;ratioP2;P2;SDS_P1;SDS_P2;PMS_P1;PMS_P2;Temp;Humidity;BMP_temperature;BMP_pressure;BME280_temperature;BME280_humidity;BME280_pressure;Samples;Min_cycle;Max_cycle;Signal;HPM_P1;HPM_P2
2024/02/18 00:00:35;;;;;;;22.27;10.60;;;4.30;99.90;;;;;;5008655;28;20021;-75
2024/02/18 00:03:01;;;;;;;12.05;7.22;;;4.40;99.90;;;;;;5077142;28;20018;-75
2024/02/18 00:05:26;;;;;;;12.90;8.18;;;4.30;99.90;;;;;;5093136;28;20026;-79
2024/02/18 00:07:52;;;;;;;13.15;7.82;;;4.30;99.90;;;;;;5077128;28;20010;-75
2024/02/18 00:10:18;;;;;;;18.67;10.75;;;4.30;99.90;;;;;;5009178;28;20481;-76
2024/02/18 00:12:44;;;;;;;19.60;9.98;;;4.30;99.90;;;;;;5009381;28;20026;-78
2024/02/18 00:15:10;;;;;;;11.77;6.57;;;4.30;99.90;;;;;;5009191;28;20494;-79
2024/02/18 00:17:35;;;;;;;8.27;4.93;;;4.30;99.90;;;;;;5077108;28;20022;-79
2024/02/18 00:20:01;;;;;;;7.68;5.50;;;4.20;99.90;;;;;;5010596;28;20018;-78
2024/02/18 00:22:26;;;;;;;6.65;4.50;;;4.20;99.90;;;;;;5077600;28;20026;-79
2024/02/18 00:24:52;;;;;;;5.05;4.55;;;4.20;99.90;;;;;;5077841;28;20032;-79
2024/02/18 00:27:18;;;;;;;8.27;4.68;;;4.30;99.90;;;;;;5080517;28;20118;-76
2024/02/18 00:29:43;;;;;;;8.07;4.63;;;4.30;99.90;;;;;;5079953;28;20041;-78
2024/02/18 00:32:09;;;;;;;6.97;3.78;;;4.30;99.10;;;;;;5080370;28;20025;-79
2024/02/18 00:34:35;;;;;;;5.70;4.00;;;4.40;99.90;;;;;;5080227;28;20026;-75
2024/02/18 00:37:01;;;;;;;7.45;4.85;;;4.40;99.90;;;;;;5006842;28;20461;-75
2024/02/18 00:39:27;;;;;;;7.93;4.35;;;4.40;99.90;;;;;;5074053;28;20108;-79
2024/02/18 00:41:53;;;;;;;7.65;4.40;;;4.40;99.90;;;;;;5080410;28;20022;-75
2024/02/18 00:44:23;;;;;;;11.77;7.13;;;4.40;99.90;;;;;;5080175;28;20058;-75
2024/02/18 00:46:51;;;;;;;8.98;4.70;;;4.40;99.90;;;;;;5012089;28;20046;-75
2024/02/18 00:49:17;;;;;;;7.88;5.13;;;4.40;99.90;;;;;;5012282;28;20081;-75
2024/02/18 00:51:43;;;;;;;8.43;5.60;;;4.40;99.90;;;;;;5011882;28;20048;-73
2024/02/18 00:54:08;;;;;;;11.40;6.65;;;4.40;99.90;;;;;;5079774;28;20022;-73
2024/02/18 00:56:34;;;;;;;10.07;7.65;;;4.30;99.90;;;;;;5004020;28;20042;-79
2024/02/18 00:58:59;;;;;;;10.38;7.85;;;4.40;99.90;;;;;;5074517;28;20113;-78
2024/02/18 01:01:25;;;;;;;11.20;6.30;;;4.30;99.90;;;;;;5012016;28;20037;-77
2024/02/18 01:03:51;;;;;;;8.75;5.65;;;4.30;99.90;;;;;;4998763;28;20044;-76
2024/02/18 01:06:16;;;;;;;7.20;5.55;;;4.30;99.90;;;;;;5088494;28;20044;-76
2024/02/18 01:08:42;;;;;;;10.70;5.38;;;4.30;99.90;;;;;;5074269;28;20533;-79
2024/02/18 01:11:08;;;;;;;7.38;4.90;;;4.30;99.90;;;;;;5011877;28;20033;-78
2024/02/18 01:13:33;;;;;;;7.60;5.38;;;4.30;99.90;;;;;;5096329;28;20026;-78
2024/02/18 01:16:00;;;;;;;5.93;4.65;;;4.20;99.90;;;;;;5011677;28;20033;-78
2024/02/18 01:18:26;;;;;;;7.30;5.15;;;4.20;99.90;;;;;;5079707;28;20046;-75
2024/02/18 01:20:52;;;;;;;7.70;4.43;;;4.20;99.90;;;;;;5096187;28;20110;-78
2024/02/18 01:23:17;;;;;;;6.32;4.60;;;4.20;99.90;;;;;;5078285;28;20160;-78
2024/02/18 01:25:43;;;;;;;6.15;4.53;;;4.20;99.90;;;;;;5079439;28;20127;-75
2024/02/18 01:28:08;;;;;;;4.75;3.95;;;4.20;99.90;;;;;;5006857;28;20103;-75
2024/02/18 01:30:34;;;;;;;5.72;4.80;;;4.20;99.90;;;;;;5078706;28;20487;-78
2024/02/18 01:32:59;;;;;;;5.05;4.50;;;4.20;99.90;;;;;;5010940;28;20029;-75
2024/02/18 01:35:25;;;;;;;8.40;5.50;;;4.20;99.90;;;;;;5011418;28;20037;-79
2024/02/18 01:37:51;;;;;;;5.80;4.63;;;4.20;99.90;;;;;;5095866;28;20034;-79
2024/02/18 01:40:16;;;;;;;6.35;4.15;;;4.20;99.90;;;;;;5096242;28;20046;-76
2024/02/18 01:42:42;;;;;;;7.05;3.97;;;4.20;99.90;;;;;;5095639;28;20114;-76
2024/02/18 01:45:11;;;;;;;5.97;3.92;;;4.10;99.90;;;;;;5079688;28;20028;-78
2024/02/18 01:47:40;;;;;;;7.47;4.40;;;4.20;99.90;;;;;;5010980;28;20044;-78
2024/02/18 01:50:08;;;;;;;7.90;4.05;;;4.20;99.90;;;;;;5080362;28;20365;-79
2024/02/18 01:52:35;;;;;;;6.90;4.13;;;4.20;99.90;;;;;;5010829;28;20022;-79
2024/02/18 01:55:01;;;;;;;5.90;4.28;;;4.20;99.90;;;;;;5011174;28;20022;-75
2024/02/18 01:57:30;;;;;;;6.78;4.47;;;4.20;99.90;;;;;;5079020;28;20109;-80
2024/02/18 01:59:58;;;;;;;5.75;3.90;;;4.20;99.90;;;;;;5085604;28;20026;-80
2024/02/18 02:02:24;;;;;;;9.13;4.40;;;4.30;99.90;;;;;;5010546;28;20380;-79
2024/02/18 02:04:50;;;;;;;6.78;4.32;;;4.20;99.90;;;;;;5079634;28;20025;-79
2024/02/18 02:07:18;;;;;;;6.30;5.30;;;4.20;99.90;;;;;;5007104;28;20022;-80
2024/02/18 02:09:45;;;;;;;7.65;4.60;;;4.20;99.90;;;;;;5001098;28;20022;-75
2024/02/18 02:12:10;;;;;;;6.78;4.00;;;4.20;99.90;;;;;;4999010;28;20092;-75
2024/02/18 02:14:36;;;;;;;4.55;3.97;;;4.20;99.90;;;;;;5010986;28;20458;-75
2024/02/18 02:17:02;;;;;;;4.68;3.88;;;4.10;99.90;;;;;;5094196;28;20030;-75
2024/02/18 02:19:27;;;;;;;5.60;3.65;;;4.20;99.90;;;;;;5095164;28;20022;-75
2024/02/18 02:21:53;;;;;;;5.75;3.92;;;4.20;99.90;;;;;;5010608;28;20029;-79
2024/02/18 02:24:19;;;;;;;7.43;4.22;;;4.20;99.90;;;;;;5077408;28;20045;-75
2024/02/18 02:26:49;;;;;;;6.43;4.15;;;4.20;99.90;;;;;;5081684;28;20116;-78
2024/02/18 02:29:15;;;;;;;7.90;4.38;;;4.20;99.90;;;;;;4998647;28;20043;-79
2024/02/18 02:31:44;;;;;;;4.57;4.07;;;4.20;99.90;;;;;;5073598;28;20033;-79
2024/02/18 02:34:14;;;;;;;5.88;4.45;;;4.10;99.90;;;;;;5085386;28;20079;-78
2024/02/18 02:36:40;;;;;;;8.38;4.20;;;4.20;99.90;;;;;;4997225;28;20559;-78
2024/02/18 02:39:07;;;;;;;5.35;4.30;;;4.10;99.90;;;;;;5009616;28;20080;-78
2024/02/18 02:41:34;;;;;;;5.85;4.65;;;4.20;99.90;;;;;;5077973;28;20018;-78
2024/02/18 02:43:59;;;;;;;6.68;5.25;;;4.20;99.90;;;;;;5010115;28;20026;-75
2024/02/18 02:46:25;;;;;;;8.38;5.13;;;4.20;99.70;;;;;;5005757;28;20131;-72
2024/02/18 02:48:51;;;;;;;11.95;5.10;;;4.20;99.90;;;;;;5010512;28;20033;-74
2024/02/18 02:51:19;;;;;;;7.05;5.32;;;4.20;99.90;;;;;;5077534;28;20029;-74
2024/02/18 02:53:45;;;;;;;6.25;4.50;;;4.20;99.90;;;;;;5010019;28;20071;-75
2024/02/18 02:56:11;;;;;;;6.45;4.40;;;4.20;99.90;;;;;;5009740;28;20034;-78
2024/02/18 02:58:37;;;;;;;5.60;4.97;;;4.20;99.90;;;;;;5077830;28;20408;-79
2024/02/18 03:01:02;;;;;;;5.25;4.30;;;4.20;99.90;;;;;;5029389;28;20049;-79
2024/02/18 03:03:28;;;;;;;10.30;5.90;;;4.10;99.90;;;;;;5009130;28;20551;-75
2024/02/18 03:05:54;;;;;;;7.47;6.50;;;4.10;97.10;;;;;;5077824;28;20029;-78
2024/02/18 03:08:20;;;;;;;9.25;5.80;;;4.00;95.10;;;;;;5094356;28;20060;-78
2024/02/18 03:10:46;;;;;;;9.27;5.60;;;4.00;94.70;;;;;;5010052;28;20152;-79
2024/02/18 03:13:11;;;;;;;9.80;6.50;;;4.10;96.40;;;;;;5010012;28;20473;-75
2024/02/18 03:15:37;;;;;;;10.48;5.95;;;4.10;96.50;;;;;;5010036;28;20053;-75
2024/02/18 03:18:03;;;;;;;7.35;5.57;;;4.10;96.30;;;;;;5094276;28;20467;-75
2024/02/18 03:20:29;;;;;;;6.75;5.72;;;4.10;96.90;;;;;;5009776;28;20044;-75
2024/02/18 03:22:55;;;;;;;7.38;5.43;;;4.10;98.20;;;;;;5077152;28;20026;-75
2024/02/18 03:25:21;;;;;;;9.02;5.50;;;4.10;99.90;;;;;;5009931;28;20105;-75
2024/02/18 03:27:47;;;;;;;8.10;5.13;;;4.00;99.90;;;;;;5008395;28;20112;-78
2024/02/18 03:30:13;;;;;;;6.30;5.65;;;4.00;97.30;;;;;;5010007;28;20018;-78
2024/02/18 03:32:38;;;;;;;9.77;5.40;;;3.90;91.80;;;;;;5009628;28;20034;-79
2024/02/18 03:35:05;;;;;;;9.52;5.18;;;3.90;89.60;;;;;;5094049;28;20033;-75
2024/02/18 03:37:31;;;;;;;9.32;4.95;;;3.90;90.50;;;;;;5075634;28;20034;-78
2024/02/18 03:39:57;;;;;;;8.98;5.57;;;3.90;91.00;;;;;;5009608;28;20103;-78
2024/02/18 03:42:22;;;;;;;8.43;5.03;;;3.90;90.10;;;;;;5009437;28;20034;-79
2024/02/18 03:44:48;;;;;;;5.75;4.22;;;3.90;90.90;;;;;;5009719;28;20054;-79
2024/02/18 03:47:14;;;;;;;6.57;4.72;;;3.90;91.50;;;;;;5077092;28;20029;-75
2024/02/18 03:49:40;;;;;;;4.63;4.13;;;3.80;88.50;;;;;;5009506;28;20033;-79
2024/02/18 03:52:06;;;;;;;5.10;4.07;;;3.80;87.50;;;;;;5076891;28;20089;-75
2024/02/18 03:54:32;;;;;;;6.80;4.35;;;3.80;86.20;;;;;;5010479;28;20061;-75
2024/02/18 03:56:58;;;;;;;6.60;4.43;;;3.80;86.70;;;;;;5012281;28;20079;-76
2024/02/18 03:59:25;;;;;;;5.95;4.32;;;3.80;88.70;;;;;;5003783;28;20101;-75
2024/02/18 04:01:51;;;;;;;6.80;5.10;;;3.80;90.80;;;;;;5012735;28;20034;-78
2024/02/18 04:04:17;;;;;;;4.82;3.95;;;3.80;91.60;;;;;;5012999;28;20471;-78
2024/02/18 04:06:43;;;;;;;8.18;4.72;;;3.80;90.60;;;;;;5012706;28;20044;-75
2024/02/18 04:09:11;;;;;;;9.00;3.92;;;3.80;92.00;;;;;;5080911;28;20395;-75
2024/02/18 04:11:37;;;;;;;5.00;4.18;;;3.80;93.00;;;;;;5012505;28;20022;-75
2024/02/18 04:14:03;;;;;;;5.88;4.28;;;3.80;93.00;;;;;;5012779;28;20025;-79
2024/02/18 04:16:29;;;;;;;16.70;7.25;;;3.80;93.60;;;;;;4999290;28;20035;-78
2024/02/18 04:18:55;;;;;;;16.92;8.48;;;3.80;93.30;;;;;;5012866;28;20025;-75
2024/02/18 04:21:20;;;;;;;9.73;5.05;;;3.70;92.90;;;;;;5097311;28;20113;-75
2024/02/18 04:23:46;;;;;;;10.05;5.82;;;3.70;94.10;;;;;;5012706;28;20030;-75
2024/02/18 04:26:12;;;;;;;10.77;6.80;;;3.70;93.50;;;;;;4999668;28;20022;-75
2024/02/18 04:28:39;;;;;;;10.00;6.38;;;3.70;94.90;;;;;;5007647;28;20040;-75
2024/02/18 04:31:05;;;;;;;9.88;5.55;;;3.70;96.20;;;;;;5012440;28;20026;-79
2024/02/18 04:33:30;;;;;;;7.72;4.57;;;3.60;96.30;;;;;;5080548;28;20025;-75
2024/02/18 04:35:56;;;;;;;9.50;3.72;;;3.60;96.00;;;;;;5096826;28;20034;-75
2024/02/18 04:38:22;;;;;;;4.88;3.58;;;3.60;94.50;;;;;;5079387;28;20468;-75
2024/02/18 04:40:47;;;;;;;6.32;4.03;;;3.60;95.20;;;;;;5011902;28;20092;-75
2024/02/18 04:43:13;;;;;;;5.68;4.90;;;3.60;95.30;;;;;;5012386;28;20509;-75
2024/02/18 04:45:38;;;;;;;4.10;3.63;;;3.60;95.50;;;;;;5012049;28;20063;-75
2024/02/18 04:48:04;;;;;;;6.70;4.07;;;3.50;93.40;;;;;;5003581;28;20392;-75
2024/02/18 04:50:30;;;;;;;4.70;4.30;;;3.50;94.40;;;;;;5075345;28;20068;-80
2024/02/18 04:52:55;;;;;;;7.60;4.28;;;3.50;94.60;;;;;;5080078;28;20017;-75
2024/02/18 04:55:21;;;;;;;6.65;3.65;;;3.50;94.90;;;;;;5011762;28;20030;-76
2024/02/18 04:57:47;;;;;;;8.05;5.00;;;3.50;95.80;;;;;;5079667;28;20428;-78
2024/02/18 05:00:13;;;;;;;6.05;3.88;;;3.50;96.30;;;;;;5091353;28;20109;-78
2024/02/18 05:02:38;;;;;;;5.18;3.85;;;3.50;95.20;;;;;;5079914;28;20116;-79
2024/02/18 05:05:04;;;;;;;11.23;5.50;;;3.50;95.20;;;;;;5096203;28;20060;-79
2024/02/18 05:07:31;;;;;;;8.63;4.80;;;3.50;95.10;;;;;;5011932;28;20019;-78
2024/02/18 05:09:58;;;;;;;7.10;4.78;;;3.50;90.80;;;;;;5078997;28;20034;-78
2024/02/18 05:12:23;;;;;;;6.75;3.85;;;3.50;91.90;;;;;;5011877;28;20022;-79
2024/02/18 05:14:49;;;;;;;7.18;3.65;;;3.50;90.40;;;;;;5011189;28;20055;-79
2024/02/18 05:17:15;;;;;;;5.85;4.50;;;3.50;90.40;;;;;;5011696;28;20109;-79
2024/02/18 05:19:40;;;;;;;8.05;4.70;;;3.50;91.10;;;;;;5096526;28;20105;-78
2024/02/18 05:22:06;;;;;;;6.18;4.35;;;3.40;90.00;;;;;;5079609;28;20101;-78
2024/02/18 05:24:32;;;;;;;5.07;3.70;;;3.30;90.90;;;;;;5011391;28;20068;-78
2024/02/18 05:26:58;;;;;;;4.55;4.00;;;3.30;89.50;;;;;;5011688;28;20093;-79
2024/02/18 05:29:24;;;;;;;5.28;3.90;;;3.30;88.90;;;;;;5079466;28;20104;-79
2024/02/18 05:31:50;;;;;;;6.72;4.65;;;3.20;88.20;;;;;;5096496;28;20341;-79
2024/02/18 05:34:16;;;;;;;5.47;3.70;;;3.20;86.80;;;;;;5011409;28;20022;-75
2024/02/18 05:36:43;;;;;;;6.68;5.15;;;3.20;87.10;;;;;;5011455;28;20034;-75
2024/02/18 05:39:10;;;;;;;6.68;4.60;;;3.30;87.00;;;;;;5010497;28;20053;-75
2024/02/18 05:41:36;;;;;;;7.65;4.20;;;3.30;87.00;;;;;;5011654;28;20056;-79
2024/02/18 05:44:02;;;;;;;4.82;3.90;;;3.30;87.10;;;;;;5011350;28;20030;-75
2024/02/18 05:46:27;;;;;;;6.38;4.13;;;3.30;88.30;;;;;;5079065;28;20452;-78
2024/02/18 05:48:53;;;;;;;7.22;4.00;;;3.30;86.80;;;;;;5011087;28;20064;-75
2024/02/18 05:51:19;;;;;;;6.65;5.57;;;3.30;86.50;;;;;;5011307;28;20438;-76
2024/02/18 05:53:45;;;;;;;8.63;6.72;;;3.30;87.20;;;;;;5095570;28;20029;-78
2024/02/18 05:56:11;;;;;;;10.35;5.82;;;3.30;86.90;;;;;;5002338;28;20160;-80
2024/02/18 05:58:37;;;;;;;8.35;5.95;;;3.30;87.00;;;;;;5064486;28;20030;-78
2024/02/18 06:01:02;;;;;;;6.07;4.25;;;3.40;87.30;;;;;;5078662;28;20369;-78
2024/02/18 06:03:29;;;;;;;9.35;5.25;;;3.30;86.40;;;;;;5091048;28;20381;-78
2024/02/18 06:05:54;;;;;;;9.48;4.55;;;3.30;85.30;;;;;;5010983;28;20065;-75
2024/02/18 06:08:20;;;;;;;7.55;4.50;;;3.30;85.50;;;;;;5078036;28;20491;-75
2024/02/18 06:10:46;;;;;;;7.53;5.05;;;3.30;86.30;;;;;;5010952;28;20026;-78
2024/02/18 06:13:12;;;;;;;5.80;4.97;;;3.30;85.90;;;;;;4997666;28;20022;-78
2024/02/18 06:15:38;;;;;;;5.07;3.85;;;3.30;86.20;;;;;;5078825;28;20030;-75
2024/02/18 06:18:04;;;;;;;5.20;4.30;;;3.30;85.50;;;;;;5077467;28;20154;-78
2024/02/18 06:20:30;;;;;;;5.65;3.70;;;3.30;86.40;;;;;;5095690;28;20151;-78
2024/02/18 06:22:56;;;;;;;8.70;4.40;;;3.30;86.30;;;;;;5010568;28;20376;-78
2024/02/18 06:25:23;;;;;;;5.50;4.20;;;3.40;87.10;;;;;;5010847;28;20097;-75
2024/02/18 06:27:50;;;;;;;5.90;4.13;;;3.40;87.80;;;;;;5077478;28;20030;-78
2024/02/18 06:30:16;;;;;;;7.03;4.63;;;3.40;88.20;;;;;;5010397;28;20026;-78
2024/02/18 06:32:42;;;;;;;5.82;4.78;;;3.40;88.00;;;;;;5078131;28;20022;-75
2024/02/18 06:35:10;;;;;;;9.15;4.60;;;3.40;87.50;;;;;;5010675;28;20390;-78
2024/02/18 06:37:36;;;;;;;8.70;4.78;;;3.40;87.00;;;;;;5009376;28;20418;-75
2024/02/18 06:40:02;;;;;;;6.47;4.43;;;3.50;87.20;;;;;;5091676;28;20055;-78
2024/02/18 06:42:28;;;;;;;7.18;4.65;;;3.50;87.00;;;;;;5085065;28;20082;-77
2024/02/18 06:44:53;;;;;;;5.90;4.43;;;3.50;87.70;;;;;;5071855;28;20432;-78
2024/02/18 06:47:19;;;;;;;8.15;5.30;;;3.50;87.40;;;;;;5075114;28;20074;-78
2024/02/18 06:49:44;;;;;;;6.45;5.28;;;3.40;87.30;;;;;;5089347;28;20053;-80
2024/02/18 06:52:10;;;;;;;6.13;4.15;;;3.40;87.00;;;;;;5079303;28;20047;-79
2024/02/18 06:54:36;;;;;;;8.50;4.82;;;3.40;87.30;;;;;;5089153;28;20016;-75
2024/02/18 06:57:02;;;;;;;8.40;4.82;;;3.30;87.70;;;;;;5105653;28;20039;-74
2024/02/18 06:59:28;;;;;;;6.75;4.65;;;3.30;88.20;;;;;;5082938;28;20466;-74
2024/02/18 07:01:53;;;;;;;8.30;5.68;;;3.30;89.00;;;;;;5084109;28;20077;-75
2024/02/18 07:04:19;;;;;;;8.20;5.70;;;3.30;90.30;;;;;;5078798;28;20386;-78
2024/02/18 07:06:44;;;;;;;9.20;5.72;;;3.30;91.70;;;;;;5075598;28;20155;-78
2024/02/18 07:09:10;;;;;;;7.43;4.65;;;3.30;92.00;;;;;;5089379;28;20043;-78
2024/02/18 07:11:36;;;;;;;11.00;6.65;;;3.30;92.00;;;;;;5085142;28;20036;-78
2024/02/18 07:14:01;;;;;;;7.75;6.20;;;3.30;93.80;;;;;;5091251;28;20023;-78
2024/02/18 07:16:27;;;;;;;10.15;5.70;;;3.30;91.00;;;;;;5092317;28;20039;-76
2024/02/18 07:18:52;;;;;;;9.50;5.97;;;3.20;88.50;;;;;;5087692;28;20096;-78
2024/02/18 07:21:18;;;;;;;6.28;4.63;;;3.20;86.80;;;;;;5074728;28;20402;-78
2024/02/18 07:23:45;;;;;;;16.60;6.80;;;3.20;83.50;;;;;;5106883;28;20066;-77
2024/02/18 07:26:14;;;;;;;6.53;4.88;;;3.20;83.40;;;;;;5090050;28;20180;-77
2024/02/18 07:28:40;;;;;;;9.98;5.35;;;3.20;82.00;;;;;;5076833;28;20032;-78
2024/02/18 07:31:07;;;;;;;9.00;5.07;;;3.20;82.10;;;;;;5086051;28;20024;-77
2024/02/18 07:33:32;;;;;;;11.63;6.68;;;3.30;83.10;;;;;;5092931;28;20099;-77
2024/02/18 07:36:01;;;;;;;9.73;6.35;;;3.30;83.30;;;;;;5092044;28;20565;-77
2024/02/18 07:38:27;;;;;;;13.40;6.60;;;3.30;83.50;;;;;;5085355;28;20024;-78
2024/02/18 07:40:53;;;;;;;9.60;6.43;;;3.30;83.70;;;;;;5006034;28;20057;-74
2024/02/18 07:43:19;;;;;;;10.68;5.70;;;3.30;84.30;;;;;;5045530;28;20050;-74
2024/02/18 07:45:46;;;;;;;8.18;5.97;;;3.30;84.10;;;;;;4996081;28;20030;-74
2024/02/18 07:48:13;;;;;;;8.10;5.53;;;3.20;84.40;;;;;;5002983;28;20486;-73
2024/02/18 07:50:39;;;;;;;9.23;5.78;;;3.20;85.00;;;;;;5000234;28;20057;-74
2024/02/18 07:53:04;;;;;;;6.72;4.65;;;3.20;85.50;;;;;;5002535;28;20046;-74
2024/02/18 07:55:31;;;;;;;6.20;4.63;;;3.20;84.20;;;;;;5070006;28;20026;-73
2024/02/18 07:57:57;;;;;;;9.70;4.50;;;3.20;82.60;;;;;;5004889;28;20026;-74
2024/02/18 08:00:23;;;;;;;10.70;5.80;;;3.20;83.10;;;;;;5009793;28;20022;-74
2024/02/18 08:02:48;;;;;;;7.25;4.60;;;3.30;83.80;;;;;;5008896;28;20382;-74
2024/02/18 08:05:14;;;;;;;8.90;4.78;;;3.20;82.20;;;;;;5038578;28;20438;-73
2024/02/18 08:07:40;;;;;;;28.27;14.02;;;3.20;82.30;;;;;;4998414;28;20026;-73
2024/02/18 08:10:06;;;;;;;10.57;5.82;;;3.20;82.40;;;;;;4997097;28;20067;-73
2024/02/18 08:12:32;;;;;;;9.82;5.45;;;3.20;82.40;;;;;;5077248;28;20532;-73
2024/02/18 08:14:58;;;;;;;9.35;6.05;;;3.10;83.10;;;;;;4997069;28;20018;-73
2024/02/18 08:17:23;;;;;;;16.52;8.50;;;3.20;82.60;;;;;;5097202;28;20075;-73
2024/02/18 08:19:49;;;;;;;14.75;8.40;;;3.20;82.30;;;;;;5012209;28;20147;-74
2024/02/18 08:22:16;;;;;;;15.95;8.70;;;3.20;81.60;;;;;;5012545;28;20101;-73
2024/02/18 08:24:42;;;;;;;18.08;9.70;;;3.10;81.80;;;;;;5080694;28;20021;-79
2024/02/18 08:27:08;;;;;;;20.88;11.27;;;3.20;81.10;;;;;;5012126;28;20026;-79
2024/02/18 08:29:34;;;;;;;16.98;8.38;;;3.20;81.30;;;;;;4998750;28;20025;-79
2024/02/18 08:32:02;;;;;;;11.35;7.13;;;3.20;81.50;;;;;;4994669;28;20029;-80
2024/02/18 08:34:28;;;;;;;19.13;9.73;;;3.30;81.20;;;;;;5065873;28;20023;-80
2024/02/18 08:36:53;;;;;;;17.38;10.77;;;3.30;81.30;;;;;;5011480;28;20067;-79
2024/02/18 08:39:20;;;;;;;17.38;9.27;;;3.40;81.80;;;;;;5002015;28;20426;-79
2024/02/18 08:41:46;;;;;;;11.25;8.32;;;3.40;80.70;;;;;;5072468;28;20019;-79
2024/02/18 08:44:14;;;;;;;14.55;7.78;;;3.50;80.50;;;;;;5023543;28;20072;-79
2024/02/18 08:46:41;;;;;;;7.88;5.50;;;3.50;80.10;;;;;;5003178;28;20056;-78
2024/02/18 08:49:07;;;;;;;5.88;5.25;;;3.50;78.80;;;;;;5004363;28;20052;-78
2024/02/18 08:51:33;;;;;;;6.75;5.47;;;3.50;78.90;;;;;;5075363;28;20042;-78
2024/02/18 08:53:59;;;;;;;10.57;6.32;;;3.70;79.30;;;;;;5069278;28;20087;-78
2024/02/18 08:56:25;;;;;;;7.85;5.20;;;3.70;79.00;;;;;;5007357;28;20035;-79
2024/02/18 08:58:50;;;;;;;10.35;7.30;;;3.80;79.80;;;;;;5050663;28;20034;-79
2024/02/18 09:01:19;;;;;;;12.25;8.13;;;3.80;79.40;;;;;;5070649;28;20026;-80
2024/02/18 09:03:45;;;;;;;6.32;5.43;;;3.90;78.70;;;;;;5079848;28;20042;-80
2024/02/18 09:06:10;;;;;;;6.85;5.47;;;3.80;78.00;;;;;;5072858;28;20258;-79
2024/02/18 09:08:36;;;;;;;13.52;9.02;;;3.80;78.10;;;;;;5045494;28;20035;-79
2024/02/18 09:11:02;;;;;;;11.38;7.03;;;3.90;79.20;;;;;;4999049;28;20531;-79
2024/02/18 09:13:27;;;;;;;7.90;5.88;;;3.90;78.70;;;;;;5007291;28;20030;-79
2024/02/18 09:15:53;;;;;;;9.52;5.80;;;3.90;77.70;;;;;;4993859;28;20472;-79
2024/02/18 09:18:19;;;;;;;8.77;6.38;;;3.80;78.20;;;;;;5007893;28;20059;-79
2024/02/18 09:20:44;;;;;;;16.02;9.73;;;3.90;78.50;;;;;;5048981;28;20018;-78
2024/02/18 09:23:10;;;;;;;8.68;5.80;;;3.90;77.30;;;;;;5002611;28;20032;-80
2024/02/18 09:25:36;;;;;;;7.65;5.95;;;3.90;76.80;;;;;;5058392;28;20046;-79
2024/02/18 09:28:02;;;;;;;7.82;5.97;;;3.90;76.70;;;;;;5005263;28;20076;-78
2024/02/18 09:30:28;;;;;;;8.20;5.30;;;4.00;76.70;;;;;;5069720;28;20037;-78
2024/02/18 09:32:53;;;;;;;12.90;6.70;;;4.10;77.40;;;;;;5059198;28;20458;-79
2024/02/18 09:35:20;;;;;;;6.95;5.40;;;4.10;77.40;;;;;;5007676;28;20091;-80
2024/02/18 09:37:46;;;;;;;51.40;25.38;;;4.20;77.50;;;;;;5006564;28;20018;-80
2024/02/18 09:40:12;;;;;;;12.30;7.35;;;4.20;77.90;;;;;;5060653;28;20537;-80
2024/02/18 09:42:42;;;;;;;9.10;5.43;;;4.30;76.90;;;;;;5006362;28;20030;-80
2024/02/18 09:45:11;;;;;;;9.05;5.70;;;4.20;75.70;;;;;;5007279;28;20117;-80
2024/02/18 09:47:40;;;;;;;11.57;6.07;;;4.30;75.30;;;;;;5089793;28;20083;-80
2024/02/18 09:50:09;;;;;;;9.93;5.80;;;4.30;74.60;;;;;;5008192;28;20078;-81
2024/02/18 09:52:41;;;;;;;10.70;5.32;;;4.20;75.10;;;;;;5071059;28;20023;-82
2024/02/18 09:55:08;;;;;;;6.70;4.97;;;4.20;74.40;;;;;;5093732;28;20402;-81
2024/02/18 09:57:34;;;;;;;58.60;27.17;;;4.30;73.90;;;;;;5000529;28;20077;-81
2024/02/18 10:00:00;;;;;;;24.30;14.02;;;4.40;74.70;;;;;;4999959;28;20066;-76
2024/02/18 10:02:27;;;;;;;7.72;6.03;;;4.40;75.00;;;;;;5006838;28;20030;-77
2024/02/18 10:04:53;;;;;;;8.13;5.95;;;4.40;73.10;;;;;;5073549;28;20087;-76
2024/02/18 10:07:19;;;;;;;7.28;5.55;;;4.40;72.20;;;;;;5071442;28;20034;-77
2024/02/18 10:09:45;;;;;;;8.15;6.32;;;4.50;71.60;;;;;;5076659;28;20509;-75
2024/02/18 10:12:11;;;;;;;35.33;20.90;;;4.60;72.20;;;;;;5007783;28;20097;-75
2024/02/18 10:14:36;;;;;;;53.60;29.05;;;4.70;72.50;;;;;;5081459;28;20125;-76
2024/02/18 10:17:02;;;;;;;33.80;19.20;;;4.70;73.20;;;;;;5086951;28;20105;-77
2024/02/18 10:19:28;;;;;;;18.77;11.50;;;4.80;72.90;;;;;;5078636;28;20524;-76
2024/02/18 10:21:54;;;;;;;8.32;5.22;;;5.00;72.80;;;;;;5076958;28;20479;-76
2024/02/18 10:24:23;;;;;;;6.43;4.57;;;5.10;73.60;;;;;;5008250;28;20022;-77
2024/02/18 10:26:50;;;;;;;12.38;5.60;;;5.20;71.20;;;;;;5007419;28;20045;-75
2024/02/18 10:29:15;;;;;;;8.88;5.03;;;5.30;70.30;;;;;;5001186;28;20599;-76
2024/02/18 10:31:41;;;;;;;8.75;4.70;;;5.20;68.00;;;;;;5006074;28;20155;-75
2024/02/18 10:34:07;;;;;;;5.78;4.55;;;5.20;67.50;;;;;;5093073;28;20029;-75
2024/02/18 10:36:36;;;;;;;6.05;5.15;;;5.10;68.40;;;;;;5092989;28;20470;-77
2024/02/18 10:39:03;;;;;;;6.13;4.47;;;5.10;69.10;;;;;;5076277;28;20420;-76
2024/02/18 10:41:52;;;;;;;6.25;4.63;;;5.10;68.40;;;;;;5077730;28;20391;-76
2024/02/18 10:44:18;;;;;;;6.65;4.95;;;5.10;68.60;;;;;;5002832;28;20026;-76
2024/02/18 10:46:47;;;;;;;6.03;4.82;;;4.90;68.50;;;;;;5007808;28;20044;-77
2024/02/18 10:49:25;;;;;;;5.85;4.75;;;4.80;68.90;;;;;;5007523;28;20014;-75
2024/02/18 10:52:01;;;;;;;7.50;5.20;;;4.90;68.60;;;;;;5071115;28;20034;-77
2024/02/18 10:54:57;;;;;;;8.52;5.55;;;5.00;69.20;;;;;;5002861;28;20039;-75
2024/02/18 10:57:26;;;;;;;7.85;4.70;;;5.10;69.40;;;;;;5007108;28;20026;-77
2024/02/18 11:00:04;;;;;;;11.48;6.90;;;5.20;71.10;;;;;;5007757;28;20021;-76
2024/02/18 11:02:45;;;;;;;10.63;7.28;;;5.20;71.60;;;;;;5076429;28;20117;-77
2024/02/18 11:05:11;;;;;;;30.27;11.40;;;5.30;71.20;;;;;;5092645;28;20075;-77
2024/02/18 11:07:36;;;;;;;14.10;8.00;;;5.30;69.60;;;;;;5077582;28;20515;-76
2024/02/18 11:10:03;;;;;;;19.95;13.38;;;5.20;69.40;;;;;;5009637;28;20475;-75
2024/02/18 11:12:31;;;;;;;10.02;6.38;;;5.30;68.70;;;;;;5077836;28;20018;-76
2024/02/18 11:14:59;;;;;;;9.77;5.95;;;5.40;69.10;;;;;;5077885;28;20022;-75
2024/02/18 11:17:25;;;;;;;11.75;8.23;;;5.60;69.30;;;;;;5077810;28;20051;-77
2024/02/18 11:19:51;;;;;;;9.90;5.30;;;5.80;70.30;;;;;;5068848;28;20026;-76
2024/02/18 11:22:18;;;;;;;8.43;4.93;;;5.90;68.30;;;;;;5009706;28;20036;-76
2024/02/18 11:24:47;;;;;;;10.07;6.10;;;6.00;67.60;;;;;;5009388;28;20075;-75
2024/02/18 11:27:12;;;;;;;7.18;5.40;;;6.10;69.20;;;;;;5010054;28;20399;-75
2024/02/18 11:29:46;;;;;;;5.82;4.70;;;6.10;67.40;;;;;;5094444;28;20032;-76
2024/02/18 11:32:12;;;;;;;7.00;5.28;;;5.90;65.20;;;;;;5010036;28;20030;-75
2024/02/18 11:34:38;;;;;;;6.88;4.88;;;6.10;68.30;;;;;;5009431;28;20029;-75
2024/02/18 11:37:30;;;;;;;7.43;5.25;;;6.00;67.60;;;;;;5094386;28;20480;-77
2024/02/18 11:40:04;;;;;;;7.60;5.03;;;6.00;66.00;;;;;;4998674;28;20050;-77
2024/02/18 11:42:29;;;;;;;6.55;5.07;;;6.10;67.50;;;;;;5077670;28;20381;-75
2024/02/18 11:45:24;;;;;;;17.45;10.20;;;6.10;67.20;;;;;;5094109;28;20109;-75
2024/02/18 11:47:52;;;;;;;8.10;5.78;;;6.20;67.70;;;;;;5001779;28;20138;-75
2024/02/18 11:50:19;;;;;;;7.25;5.05;;;6.30;69.40;;;;;;5005872;28;20084;-76
2024/02/18 11:52:47;;;;;;;11.38;6.53;;;6.20;68.20;;;;;;5009621;28;20049;-77
2024/02/18 11:55:14;;;;;;;7.38;5.15;;;6.20;67.40;;;;;;5009681;28;20018;-75
2024/02/18 11:57:41;;;;;;;5.93;4.60;;;5.90;66.50;;;;;;5077441;28;20522;-75
2024/02/18 12:00:12;;;;;;;5.90;5.10;;;5.70;67.10;;;;;;5076926;28;20037;-75
2024/02/18 12:02:39;;;;;;;6.43;4.75;;;5.60;66.80;;;;;;5077437;28;20068;-75
2024/02/18 12:05:06;;;;;;;6.22;4.88;;;5.70;67.20;;;;;;5009371;28;20026;-75
2024/02/18 12:07:33;;;;;;;6.75;5.30;;;5.60;67.40;;;;;;5077202;28;20145;-76
2024/02/18 12:10:00;;;;;;;6.28;5.03;;;5.60;67.70;;;;;;5009205;28;20049;-76
2024/02/18 12:12:26;;;;;;;6.07;4.53;;;5.60;67.40;;;;;;5009534;28;20014;-77
2024/02/18 12:14:55;;;;;;;5.57;4.68;;;5.60;67.80;;;;;;4996505;28;20153;-75
2024/02/18 12:17:22;;;;;;;9.48;4.93;;;5.60;67.10;;;;;;5012784;28;20034;-75
2024/02/18 12:19:48;;;;;;;6.63;5.05;;;5.60;67.70;;;;;;5080152;28;20394;-75
2024/02/18 12:22:24;;;;;;;7.75;5.07;;;5.60;67.20;;;;;;5097409;28;20032;-75
2024/02/18 12:24:50;;;;;;;6.30;5.03;;;5.60;67.70;;;;;;5012456;28;20010;-76
2024/02/18 12:27:18;;;;;;;8.68;5.40;;;5.60;67.00;;;;;;5080928;28;20596;-75
2024/02/18 12:29:45;;;;;;;7.70;4.70;;;5.70;67.70;;;;;;5079708;28;20030;-76
2024/02/18 12:32:12;;;;;;;8.52;4.95;;;5.60;67.10;;;;;;5073250;28;20050;-76
2024/02/18 12:34:39;;;;;;;7.88;4.75;;;5.60;67.20;;;;;;5079136;28;20050;-75
2024/02/18 12:37:04;;;;;;;9.20;5.50;;;5.70;67.50;;;;;;5074230;28;20019;-75
2024/02/18 12:39:31;;;;;;;10.77;6.55;;;5.80;67.50;;;;;;5068780;28;20534;-77
2024/02/18 12:41:59;;;;;;;9.32;6.72;;;5.70;67.20;;;;;;5068209;28;20041;-77
2024/02/18 12:44:26;;;;;;;8.95;5.53;;;5.80;67.70;;;;;;5078946;28;20053;-77
2024/02/18 12:46:55;;;;;;;8.63;5.13;;;5.70;67.30;;;;;;5080039;28;20061;-76
2024/02/18 12:49:21;;;;;;;10.65;5.55;;;5.80;66.30;;;;;;4997734;28;20022;-77
2024/02/18 12:51:49;;;;;;;6.40;5.18;;;5.90;66.50;;;;;;5073396;28;20036;-77